Time;durP1;ratioP1;P1;durP2;ratioP2;P2;SDS_P1;SDS_P2;PMS_P1;PMS_P2;Temp;Humidity;BMP_temperature;BMP_pressure;BME280_temperature;BME280_humidity;BME280_pressure;Samples;Min_cycle;Max_cycle;Signal;HPM_P1;HPM_P2
2023/05/31 00:02:19;;;;;;;10.35;3.55;;;14.40;99.90;;;;;;5029292;28;20240;-61
2023/05/31 00:04:45;;;;;;;6.65;3.40;;;14.40;99.90;;;;;;5030466;28;20178;-61
2023/05/31 00:07:10;;;;;;;8.35;3.30;;;14.40;99.90;;;;;;5030294;28;20224;-61
2023/05/31 00:09:36;;;;;;;6.10;3.10;;;14.30;99.90;;;;;;5012829;28;20170;-61
2023/05/31 00:12:02;;;;;;;7.57;3.22;;;14.30;99.90;;;;;;5030557;28;20193;-61
2023/05/31 00:14:27;;;;;;;8.55;3.30;;;14.40;99.90;;;;;;5030574;28;20201;-61
2023/05/31 00:16:53;;;;;;;7.80;3.20;;;14.40;99.90;;;;;;5030352;28;20170;-61
2023/05/31 00:19:19;;;;;;;6.00;3.15;;;14.40;99.90;;;;;;5030381;28;20542;-61
2023/05/31 00:21:45;;;;;;;5.90;3.00;;;14.30;99.90;;;;;;5030271;28;20186;-61
2023/05/31 00:24:15;;;;;;;10.70;3.10;;;14.30;99.90;;;;;;5030563;28;20257;-61
2023/05/31 00:26:40;;;;;;;9.40;3.00;;;14.40;99.90;;;;;;5030582;28;20259;-61
2023/05/31 00:29:06;;;;;;;7.07;3.60;;;14.30;99.90;;;;;;5030271;28;20657;-63
2023/05/31 00:31:32;;;;;;;11.25;3.03;;;14.10;99.90;;;;;;5030394;28;20224;-62
2023/05/31 00:33:57;;;;;;;8.68;2.95;;;14.00;99.90;;;;;;5030212;28;20627;-61
2023/05/31 00:36:23;;;;;;;5.38;2.50;;;14.10;99.90;;;;;;5030443;28;20252;-62
2023/05/31 00:38:49;;;;;;;4.47;2.13;;;14.00;99.90;;;;;;5030204;28;20665;-62
2023/05/31 00:41:15;;;;;;;5.38;2.10;;;14.00;99.90;;;;;;5030137;28;20720;-63
2023/05/31 00:43:41;;;;;;;4.65;1.65;;;14.20;99.90;;;;;;5030453;28;20171;-65
2023/05/31 00:46:11;;;;;;;2.58;1.60;;;14.10;99.90;;;;;;5033850;28;20223;-62
2023/05/31 00:48:38;;;;;;;2.50;1.42;;;13.90;99.90;;;;;;5033789;28;20170;-64
2023/05/31 00:51:05;;;;;;;3.03;1.40;;;13.90;99.90;;;;;;5033619;28;20178;-64
2023/05/31 00:53:31;;;;;;;2.55;1.25;;;13.80;99.90;;;;;;5033715;28;20174;-64
2023/05/31 00:55:59;;;;;;;2.10;1.15;;;13.90;99.90;;;;;;5033583;28;20244;-64
2023/05/31 00:58:27;;;;;;;2.13;1.00;;;13.90;99.90;;;;;;5033807;28;20178;-64
2023/05/31 01:00:54;;;;;;;3.13;1.35;;;14.00;99.90;;;;;;5033565;28;20181;-64
2023/05/31 01:03:20;;;;;;;2.83;1.08;;;13.90;99.90;;;;;;5033671;28;20194;-64
2023/05/31 01:05:46;;;;;;;2.67;1.20;;;13.90;99.90;;;;;;5033588;28;20205;-63
2023/05/31 01:08:14;;;;;;;2.67;0.95;;;13.80;99.90;;;;;;5033580;28;20265;-63
2023/05/31 01:10:40;;;;;;;2.15;1.20;;;13.80;99.90;;;;;;5033712;28;20169;-64
2023/05/31 01:13:34;;;;;;;1.90;1.13;;;13.80;99.90;;;;;;5032568;28;20646;-64
2023/05/31 01:16:36;;;;;;;1.58;1.10;;;13.70;99.90;;;;;;5022470;28;20186;-63
2023/05/31 01:19:06;;;;;;;1.55;1.02;;;13.70;99.90;;;;;;5018145;28;20192;-63
2023/05/31 01:22:14;;;;;;;2.40;1.10;;;13.80;99.90;;;;;;5023061;28;20248;-63
2023/05/31 01:25:09;;;;;;;2.83;1.17;;;13.80;99.90;;;;;;5031311;28;20176;-64
2023/05/31 01:27:36;;;;;;;1.42;0.95;;;13.80;99.90;;;;;;5021854;28;20189;-62
2023/05/31 01:30:04;;;;;;;1.60;0.85;;;13.90;99.90;;;;;;5020247;28;20178;-62
2023/05/31 01:32:30;;;;;;;2.55;1.00;;;13.80;99.90;;;;;;5013199;28;20250;-62
2023/05/31 01:34:56;;;;;;;0.98;0.70;;;13.80;99.90;;;;;;5032892;28;20177;-62
2023/05/31 01:37:22;;;;;;;0.90;0.60;;;13.80;99.90;;;;;;5032977;28;20177;-63
2023/05/31 01:39:48;;;;;;;1.75;0.80;;;13.90;99.90;;;;;;5032984;28;20253;-62
2023/05/31 01:42:16;;;;;;;2.03;0.80;;;13.80;99.90;;;;;;5032992;28;20181;-61
2023/05/31 01:44:42;;;;;;;2.13;0.77;;;13.80;99.90;;;;;;5032731;28;20166;-62
2023/05/31 01:47:09;;;;;;;3.25;1.30;;;13.90;99.90;;;;;;5012882;28;20217;-61
2023/05/31 01:49:37;;;;;;;1.73;1.13;;;13.90;99.90;;;;;;5012986;28;20194;-61
2023/05/31 01:52:06;;;;;;;1.50;1.08;;;13.90;99.90;;;;;;5012877;28;20174;-62
2023/05/31 01:54:32;;;;;;;1.60;1.05;;;14.90;99.90;;;;;;5012930;28;20163;-62
2023/05/31 01:56:59;;;;;;;2.75;1.40;;;13.80;99.90;;;;;;5028000;28;20228;-62
2023/05/31 01:59:25;;;;;;;3.85;1.67;;;13.70;99.90;;;;;;5032402;28;20190;-62
2023/05/31 02:01:51;;;;;;;2.58;0.90;;;13.70;99.90;;;;;;5032445;28;20174;-62
2023/05/31 02:04:19;;;;;;;1.65;0.85;;;13.70;99.90;;;;;;5032645;28;20182;-61
2023/05/31 02:06:45;;;;;;;1.67;0.73;;;13.60;99.90;;;;;;5032362;28;20236;-62
2023/05/31 02:09:10;;;;;;;2.25;0.63;;;13.70;99.90;;;;;;5032599;28;20170;-62
2023/05/31 02:11:36;;;;;;;0.68;0.55;;;13.60;99.90;;;;;;5032464;28;20220;-62
2023/05/31 02:14:02;;;;;;;2.55;0.60;;;13.50;99.90;;;;;;5014554;28;20630;-61
2023/05/31 02:16:27;;;;;;;0.98;0.52;;;13.50;99.90;;;;;;5032293;28;20170;-62
2023/05/31 02:18:53;;;;;;;1.67;0.40;;;13.50;99.90;;;;;;5032254;28;20166;-62
2023/05/31 02:21:18;;;;;;;1.35;0.50;;;13.40;99.90;;;;;;5032132;28;20178;-62
2023/05/31 02:23:44;;;;;;;1.38;0.88;;;13.50;99.90;;;;;;5032268;28;20177;-65
2023/05/31 02:26:10;;;;;;;0.68;0.50;;;13.50;99.90;;;;;;5032205;28;20253;-64
2023/05/31 02:28:36;;;;;;;0.40;0.40;;;13.50;99.90;;;;;;5022009;28;20653;-64
2023/05/31 02:31:01;;;;;;;2.42;0.60;;;13.60;99.90;;;;;;5029370;28;20185;-64
2023/05/31 02:33:27;;;;;;;2.40;0.50;;;;;;;;;;5029876;28;20178;-64
2023/05/31 02:35:56;;;;;;;1.35;0.57;;;13.60;99.90;;;;;;5013794;28;20183;-65
2023/05/31 02:38:22;;;;;;;0.80;0.50;;;13.60;99.90;;;;;;5029039;28;20298;-64
2023/05/31 02:40:48;;;;;;;0.70;0.55;;;13.70;99.90;;;;;;5020794;28;20181;-64
2023/05/31 02:43:13;;;;;;;1.98;0.60;;;13.60;99.90;;;;;;5031790;28;20217;-64
2023/05/31 02:45:39;;;;;;;0.65;0.47;;;13.50;99.90;;;;;;5019968;28;20210;-65
2023/05/31 02:48:05;;;;;;;1.13;0.57;;;13.40;99.90;;;;;;5012021;28;20695;-63
2023/05/31 02:50:32;;;;;;;1.00;0.55;;;13.50;99.90;;;;;;5011818;28;20175;-63
2023/05/31 02:52:57;;;;;;;1.52;0.73;;;13.40;99.90;;;;;;5011984;28;20183;-63
2023/05/31 02:55:25;;;;;;;1.30;0.80;;;13.50;99.90;;;;;;5011846;28;20182;-62
2023/05/31 02:57:50;;;;;;;1.35;0.60;;;13.40;99.90;;;;;;5023673;28;20181;-63
2023/05/31 03:00:17;;;;;;;0.70;0.57;;;13.40;99.90;;;;;;5031532;28;20249;-64
2023/05/31 03:02:43;;;;;;;2.45;0.60;;;13.40;99.90;;;;;;5031513;28;20219;-63
2023/05/31 03:05:09;;;;;;;1.08;0.80;;;13.40;99.90;;;;;;5031407;28;20185;-63
2023/05/31 03:07:36;;;;;;;1.10;0.70;;;13.30;99.90;;;;;;5030423;28;20185;-63
2023/05/31 03:10:04;;;;;;;1.65;0.60;;;13.20;99.90;;;;;;5031421;28;20166;-63
2023/05/31 03:12:32;;;;;;;1.30;0.80;;;13.30;99.90;;;;;;5031438;28;20177;-62
2023/05/31 03:14:58;;;;;;;2.38;0.98;;;13.10;99.90;;;;;;5013583;28;20181;-65
2023/05/31 03:17:23;;;;;;;5.07;0.90;;;13.10;99.90;;;;;;5031262;28;20169;-63
2023/05/31 03:19:49;;;;;;;1.90;0.60;;;13.10;99.90;;;;;;5030796;28;20178;-63
2023/05/31 03:22:15;;;;;;;1.42;0.73;;;13.10;99.90;;;;;;5031122;28;20174;-63
2023/05/31 03:24:41;;;;;;;1.23;0.73;;;13.10;99.90;;;;;;5017213;28;20776;-63
2023/05/31 03:27:06;;;;;;;2.10;0.88;;;13.00;99.90;;;;;;5026954;28;20681;-62
2023/05/31 03:29:38;;;;;;;0.85;0.70;;;12.90;99.90;;;;;;5030379;28;20174;-62
2023/05/31 03:32:04;;;;;;;1.58;0.60;;;13.00;99.90;;;;;;5011408;28;20226;-62
2023/05/31 03:34:29;;;;;;;1.98;1.10;;;12.90;99.90;;;;;;5014897;28;20170;-62
2023/05/31 03:36:55;;;;;;;3.10;0.80;;;13.00;99.90;;;;;;5030397;28;20185;-62
2023/05/31 03:39:21;;;;;;;1.88;0.90;;;12.90;99.90;;;;;;5029633;28;20692;-62
2023/05/31 03:41:46;;;;;;;1.27;0.80;;;12.90;99.90;;;;;;5030638;28;20641;-62
2023/05/31 03:44:12;;;;;;;1.63;0.80;;;13.00;99.90;;;;;;5029703;28;20178;-62
2023/05/31 03:46:37;;;;;;;1.00;0.70;;;13.00;99.90;;;;;;5030365;28;20216;-62
2023/05/31 03:49:05;;;;;;;2.63;0.90;;;12.90;99.90;;;;;;5030161;28;20634;-62
2023/05/31 03:51:31;;;;;;;1.02;0.60;;;12.90;99.90;;;;;;5030416;28;20186;-63
2023/05/31 03:53:57;;;;;;;0.77;0.70;;;12.90;99.90;;;;;;5030080;28;20653;-63
2023/05/31 03:56:22;;;;;;;1.20;0.80;;;12.90;99.90;;;;;;5030895;28;20206;-64
2023/05/31 03:58:48;;;;;;;2.20;0.60;;;12.90;99.90;;;;;;5018146;28;20171;-64
2023/05/31 04:01:14;;;;;;;2.92;0.80;;;;;;;;;;5024048;28;20182;-63
2023/05/31 04:03:40;;;;;;;2.22;0.98;;;12.90;99.90;;;;;;5024413;28;20181;-63
2023/05/31 04:06:06;;;;;;;1.27;0.70;;;12.80;99.90;;;;;;5029502;28;20206;-63
2023/05/31 04:08:31;;;;;;;2.78;0.80;;;12.90;99.90;;;;;;5030656;28;20229;-63
2023/05/31 04:10:57;;;;;;;1.23;0.73;;;13.00;99.90;;;;;;5030373;28;20181;-62
2023/05/31 04:13:22;;;;;;;1.05;0.68;;;13.00;99.90;;;;;;5030569;28;20245;-62
2023/05/31 04:15:48;;;;;;;1.60;0.77;;;;;;;;;;5030571;28;20304;-62
2023/05/31 04:18:14;;;;;;;1.25;0.68;;;13.00;99.90;;;;;;5030746;28;20196;-62
2023/05/31 04:20:40;;;;;;;1.85;0.90;;;13.00;99.90;;;;;;5033709;28;20638;-62
2023/05/31 04:23:05;;;;;;;1.10;0.80;;;13.00;99.90;;;;;;5034200;28;20181;-62
2023/05/31 04:25:31;;;;;;;1.00;0.60;;;;;;;;;;5034295;28;20201;-62
2023/05/31 04:27:57;;;;;;;1.40;0.80;;;13.00;99.90;;;;;;5034366;28;20317;-62
2023/05/31 04:30:26;;;;;;;2.72;0.70;;;13.10;99.90;;;;;;5034334;28;20634;-62
2023/05/31 04:32:52;;;;;;;0.80;0.60;;;13.10;99.90;;;;;;5034180;28;20221;-62
2023/05/31 04:35:18;;;;;;;1.45;1.15;;;13.00;99.90;;;;;;5034270;28;20657;-62
2023/05/31 04:37:44;;;;;;;2.65;0.93;;;13.00;99.90;;;;;;5034100;28;20172;-62
2023/05/31 04:40:11;;;;;;;3.58;1.08;;;13.00;99.90;;;;;;5034125;28;20521;-63
2023/05/31 04:42:37;;;;;;;2.35;1.00;;;13.10;99.90;;;;;;5034226;28;20205;-62
2023/05/31 04:45:04;;;;;;;1.40;0.90;;;13.00;99.90;;;;;;5033993;28;20232;-62
2023/05/31 04:47:31;;;;;;;2.63;1.00;;;13.10;99.90;;;;;;5034114;28;20193;-62
2023/05/31 04:49:57;;;;;;;3.63;0.90;;;13.10;99.90;;;;;;5034334;28;20170;-62
2023/05/31 04:52:29;;;;;;;1.48;0.88;;;12.90;99.90;;;;;;5033701;28;20177;-62
2023/05/31 04:54:55;;;;;;;1.30;0.95;;;12.90;99.90;;;;;;5034043;28;20174;-62
2023/05/31 04:57:26;;;;;;;1.85;1.13;;;12.90;99.90;;;;;;5033951;28;20170;-62
2023/05/31 04:59:52;;;;;;;1.33;0.85;;;12.90;99.90;;;;;;5033720;28;20178;-62
2023/05/31 05:02:18;;;;;;;3.72;1.10;;;12.90;99.90;;;;;;5032606;28;20177;-62
2023/05/31 05:04:44;;;;;;;2.27;1.10;;;12.90;99.90;;;;;;5033543;28;20185;-61
2023/05/31 05:07:10;;;;;;;3.72;1.20;;;12.90;99.90;;;;;;5033482;28;20201;-61
2023/05/31 05:09:35;;;;;;;1.67;1.15;;;12.80;99.90;;;;;;5033600;28;20664;-62
2023/05/31 05:12:02;;;;;;;1.90;1.10;;;12.80;99.90;;;;;;5033764;28;20178;-61
2023/05/31 05:14:29;;;;;;;3.13;1.20;;;12.90;99.90;;;;;;5033432;28;20173;-62
2023/05/31 05:16:54;;;;;;;2.92;1.20;;;12.90;99.90;;;;;;5033483;28;20278;-62
2023/05/31 05:19:20;;;;;;;3.72;1.42;;;13.00;99.90;;;;;;5033446;28;20606;-61
2023/05/31 05:21:46;;;;;;;2.67;1.15;;;12.90;99.90;;;;;;5015472;28;20205;-61
2023/05/31 05:24:12;;;;;;;1.60;1.02;;;12.90;99.90;;;;;;5015608;28;20181;-61
2023/05/31 05:26:37;;;;;;;1.65;1.10;;;12.70;99.90;;;;;;5033272;28;20205;-61
2023/05/31 05:29:03;;;;;;;2.55;1.08;;;12.90;99.90;;;;;;5033239;28;20162;-60
2023/05/31 05:31:28;;;;;;;1.85;1.10;;;12.90;99.90;;;;;;5032360;28;20229;-60
2023/05/31 05:33:54;;;;;;;1.63;0.90;;;12.80;99.90;;;;;;5033231;28;20670;-60
2023/05/31 05:36:20;;;;;;;1.85;1.02;;;12.90;99.90;;;;;;5032990;28;20174;-60
2023/05/31 05:38:46;;;;;;;4.13;1.00;;;13.00;99.90;;;;;;5033295;28;20646;-60
2023/05/31 05:41:12;;;;;;;1.25;0.77;;;13.00;99.90;;;;;;5033026;28;20658;-62
2023/05/31 05:43:39;;;;;;;3.17;1.10;;;13.10;99.90;;;;;;5032986;28;20183;-62
2023/05/31 05:46:05;;;;;;;2.45;0.93;;;13.20;99.90;;;;;;5032894;28;20205;-62
2023/05/31 05:48:30;;;;;;;1.30;0.68;;;13.30;99.90;;;;;;5032933;28;20177;-61
2023/05/31 05:50:56;;;;;;;1.90;0.85;;;13.30;99.90;;;;;;5032699;28;20687;-62
2023/05/31 05:53:22;;;;;;;3.95;1.00;;;13.30;99.90;;;;;;5032735;28;20281;-61
2023/05/31 05:55:50;;;;;;;2.03;1.00;;;13.30;99.90;;;;;;5032730;28;20674;-62
2023/05/31 05:58:16;;;;;;;2.55;1.08;;;13.50;99.90;;;;;;5032635;28;20170;-62
2023/05/31 06:00:44;;;;;;;1.92;1.10;;;13.50;99.90;;;;;;5032748;28;20261;-61
2023/05/31 06:03:10;;;;;;;1.83;0.70;;;;;;;;;;5032528;28;20714;-61
2023/05/31 06:05:36;;;;;;;1.70;0.98;;;13.60;99.90;;;;;;5032262;28;20355;-61
2023/05/31 06:08:02;;;;;;;1.30;0.90;;;13.50;99.90;;;;;;5014714;28;20276;-61
2023/05/31 06:10:28;;;;;;;1.35;0.80;;;13.50;99.90;;;;;;5031777;28;20178;-61
2023/05/31 06:12:54;;;;;;;0.98;0.73;;;13.50;99.90;;;;;;5022502;28;20201;-62
2023/05/31 06:15:20;;;;;;;1.85;0.85;;;13.50;99.90;;;;;;5020665;28;20179;-62
2023/05/31 06:17:48;;;;;;;1.58;0.68;;;13.70;99.90;;;;;;5032231;28;20185;-61
2023/05/31 06:20:13;;;;;;;1.10;0.55;;;13.60;99.90;;;;;;5024188;28;20183;-62
2023/05/31 06:22:39;;;;;;;4.63;1.10;;;13.50;99.90;;;;;;5012481;28;20635;-62
2023/05/31 06:25:05;;;;;;;1.00;0.70;;;13.60;99.90;;;;;;5012473;28;20265;-62
2023/05/31 06:27:31;;;;;;;1.90;0.90;;;13.70;99.90;;;;;;5012427;28;20528;-62
2023/05/31 06:30:00;;;;;;;4.43;0.80;;;13.90;99.90;;;;;;5012240;28;20257;-62
2023/05/31 06:32:27;;;;;;;0.88;0.60;;;13.80;99.90;;;;;;5020196;28;20272;-62
2023/05/31 06:34:53;;;;;;;1.30;0.70;;;14.00;99.90;;;;;;5031983;28;20197;-62
2023/05/31 06:37:20;;;;;;;3.33;0.70;;;14.10;99.90;;;;;;5031814;28;20205;-62
2023/05/31 06:39:46;;;;;;;0.70;0.40;;;14.20;99.90;;;;;;5031960;28;20178;-62
2023/05/31 06:42:11;;;;;;;2.83;0.45;;;14.10;99.90;;;;;;5031493;28;20222;-62
2023/05/31 06:44:37;;;;;;;0.93;0.68;;;14.20;99.90;;;;;;5031853;28;20178;-62
2023/05/31 06:47:03;;;;;;;0.60;0.50;;;14.20;99.90;;;;;;5031460;28;20319;-62
2023/05/31 06:49:29;;;;;;;0.77;0.60;;;14.10;99.90;;;;;;5031654;28;20165;-61
2023/05/31 06:51:55;;;;;;;0.85;0.60;;;14.10;99.90;;;;;;5031366;28;20595;-61
2023/05/31 06:54:20;;;;;;;0.90;0.40;;;14.10;99.90;;;;;;5031667;28;20196;-62
2023/05/31 06:56:46;;;;;;;0.50;0.40;;;14.10;99.90;;;;;;5031531;28;20206;-62
2023/05/31 06:59:12;;;;;;;0.65;0.50;;;14.10;99.90;;;;;;5031561;28;20545;-62
2023/05/31 07:01:37;;;;;;;2.00;0.60;;;14.00;99.90;;;;;;5031372;28;20174;-60
2023/05/31 07:04:03;;;;;;;0.52;0.50;;;14.20;99.90;;;;;;5031541;28;20634;-67
2023/05/31 07:06:29;;;;;;;1.50;0.50;;;14.10;99.90;;;;;;5031290;28;20297;-65
2023/05/31 07:08:54;;;;;;;0.68;0.45;;;14.10;99.90;;;;;;5030983;28;20166;-64
2023/05/31 07:11:21;;;;;;;0.77;0.60;;;14.00;99.90;;;;;;5023638;28;20523;-64
2023/05/31 07:13:47;;;;;;;0.60;0.50;;;14.20;99.90;;;;;;5029225;28;20248;-67
2023/05/31 07:16:13;;;;;;;2.13;0.80;;;14.20;99.90;;;;;;5031153;28;20264;-65
2023/05/31 07:18:39;;;;;;;1.50;0.50;;;14.30;99.90;;;;;;5026495;28;20261;-65
2023/05/31 07:21:05;;;;;;;1.48;0.50;;;;;;;;;;5021052;28;20598;-65
2023/05/31 07:23:30;;;;;;;1.00;0.50;;;14.60;99.90;;;;;;5025849;28;20658;-66
2023/05/31 07:26:00;;;;;;;2.25;0.60;;;14.60;99.90;;;;;;5011270;28;20360;-65
2023/05/31 07:28:26;;;;;;;1.55;0.70;;;14.50;99.90;;;;;;5028204;28;20177;-67
2023/05/31 07:30:51;;;;;;;3.40;0.40;;;14.30;99.90;;;;;;5030737;28;20171;-67
2023/05/31 07:33:17;;;;;;;1.08;0.50;;;14.10;99.90;;;;;;5029303;28;20193;-68
2023/05/31 07:35:43;;;;;;;2.17;0.68;;;14.10;99.90;;;;;;5027752;28;20174;-68
2023/05/31 07:38:09;;;;;;;1.63;0.52;;;14.30;99.90;;;;;;5030832;28;20632;-69
2023/05/31 07:40:35;;;;;;;0.95;0.60;;;14.40;99.90;;;;;;5030850;28;20210;-67
2023/05/31 07:43:01;;;;;;;4.70;0.80;;;14.50;99.90;;;;;;5029995;28;20174;-65
2023/05/31 07:45:26;;;;;;;1.90;0.60;;;15.00;99.90;;;;;;5028985;28;20656;-64
2023/05/31 07:47:52;;;;;;;2.25;0.60;;;15.00;99.90;;;;;;5029626;28;20238;-64
2023/05/31 07:50:18;;;;;;;0.73;0.63;;;14.60;99.90;;;;;;5031180;28;20177;-66
2023/05/31 07:52:46;;;;;;;1.33;0.50;;;14.60;99.90;;;;;;5030431;28;20182;-64
2023/05/31 07:55:12;;;;;;;0.98;0.50;;;14.50;99.90;;;;;;5035289;28;20186;-64
2023/05/31 07:57:38;;;;;;;0.73;0.55;;;14.50;99.90;;;;;;5037507;28;20193;-64
2023/05/31 08:00:05;;;;;;;1.42;0.50;;;14.40;99.90;;;;;;5037249;28;20208;-63
2023/05/31 08:02:31;;;;;;;0.85;0.60;;;14.60;99.90;;;;;;5036324;28;20170;-62
2023/05/31 08:05:01;;;;;;;1.63;0.77;;;;;;;;;;5025280;28;20253;-63
2023/05/31 08:07:27;;;;;;;0.65;0.55;;;14.40;99.90;;;;;;5035466;28;20240;-64
2023/05/31 08:09:53;;;;;;;1.05;0.60;;;14.40;99.90;;;;;;5037018;28;20161;-62
2023/05/31 08:12:19;;;;;;;1.77;0.73;;;14.40;99.90;;;;;;5037129;28;20172;-61
2023/05/31 08:14:44;;;;;;;0.75;0.60;;;14.40;99.90;;;;;;5036816;28;20598;-61
2023/05/31 08:17:10;;;;;;;3.40;0.90;;;14.30;99.90;;;;;;5018596;28;20545;-64
2023/05/31 08:19:36;;;;;;;1.38;0.80;;;14.50;99.90;;;;;;4999651;28;20190;-63
2023/05/31 08:22:01;;;;;;;0.45;0.45;;;14.70;99.90;;;;;;5017178;28;20233;-64
2023/05/31 08:24:28;;;;;;;0.95;0.50;;;14.70;99.90;;;;;;5024788;28;20181;-63
2023/05/31 08:26:56;;;;;;;0.50;0.40;;;14.70;99.90;;;;;;5037256;28;20213;-64
2023/05/31 08:29:21;;;;;;;0.70;0.50;;;14.70;99.90;;;;;;5037021;28;20169;-63
2023/05/31 08:31:47;;;;;;;1.67;0.68;;;14.60;99.90;;;;;;5036886;28;20225;-63
2023/05/31 08:34:13;;;;;;;0.50;0.50;;;14.50;99.90;;;;;;5036036;28;20212;-63
2023/05/31 08:36:40;;;;;;;0.63;0.50;;;14.70;99.90;;;;;;5036195;28;20178;-63
2023/05/31 08:39:07;;;;;;;6.45;0.90;;;14.60;99.90;;;;;;5036196;28;20184;-63
2023/05/31 08:41:54;;;;;;;1.95;0.90;;;14.60;99.90;;;;;;5036219;28;20638;-64
2023/05/31 08:44:21;;;;;;;1.55;0.52;;;14.60;99.90;;;;;;5035983;28;20268;-63
2023/05/31 08:46:48;;;;;;;1.17;0.60;;;14.90;99.90;;;;;;5032097;28;21601;-64
2023/05/31 08:49:17;;;;;;;1.40;0.50;;;15.10;99.90;;;;;;4999199;28;20175;-63
2023/05/31 08:51:47;;;;;;;0.93;0.50;;;15.00;99.90;;;;;;5033966;28;20221;-63
2023/05/31 08:54:14;;;;;;;3.95;0.88;;;15.00;99.90;;;;;;5036926;28;20176;-63
2023/05/31 08:56:40;;;;;;;4.82;0.60;;;15.10;99.90;;;;;;5036894;28;20181;-63
2023/05/31 08:59:11;;;;;;;1.02;0.47;;;15.10;99.90;;;;;;5036759;28;20169;-63
2023/05/31 09:01:38;;;;;;;2.10;0.85;;;15.00;99.90;;;;;;5036471;28;20219;-63
2023/05/31 09:04:07;;;;;;;1.30;0.70;;;15.10;99.90;;;;;;5036723;28;20275;-63
2023/05/31 09:06:34;;;;;;;1.55;0.73;;;15.00;99.90;;;;;;5033930;28;20206;-63
2023/05/31 09:09:00;;;;;;;1.75;0.50;;;14.90;99.90;;;;;;5033415;28;20227;-62
2023/05/31 09:11:26;;;;;;;2.00;0.60;;;14.70;99.90;;;;;;5033613;28;20251;-62
2023/05/31 09:13:52;;;;;;;1.60;0.70;;;14.60;99.90;;;;;;5033513;28;20178;-62
2023/05/31 09:16:19;;;;;;;0.60;0.47;;;14.80;99.90;;;;;;5033393;28;20676;-62
2023/05/31 09:18:45;;;;;;;0.68;0.60;;;14.90;99.90;;;;;;5033317;28;20166;-62
2023/05/31 09:21:12;;;;;;;1.83;0.85;;;14.90;99.90;;;;;;5033184;28;20178;-62
2023/05/31 09:23:52;;;;;;;3.10;1.00;;;14.90;99.90;;;;;;5033055;28;20204;-62
2023/05/31 09:26:18;;;;;;;1.23;0.60;;;15.00;99.90;;;;;;5033166;28;20245;-64
2023/05/31 09:28:48;;;;;;;0.70;0.60;;;15.00;99.90;;;;;;5033328;28;20209;-63
2023/05/31 09:31:15;;;;;;;0.57;0.50;;;15.00;99.90;;;;;;5032940;28;20260;-63
2023/05/31 09:33:47;;;;;;;1.35;0.60;;;14.80;99.90;;;;;;5033007;28;20162;-63
2023/05/31 09:36:14;;;;;;;0.52;0.47;;;14.80;99.90;;;;;;5033080;28;20700;-63
2023/05/31 09:38:40;;;;;;;0.52;0.50;;;15.10;99.90;;;;;;5033128;28;20236;-63
2023/05/31 09:41:15;;;;;;;1.17;0.70;;;15.20;99.90;;;;;;5033082;28;20188;-63
2023/05/31 09:43:41;;;;;;;1.48;0.60;;;15.40;99.90;;;;;;5032920;28;20657;-63
2023/05/31 09:46:14;;;;;;;1.35;0.60;;;15.60;99.90;;;;;;5032855;28;20198;-64
2023/05/31 09:48:41;;;;;;;2.70;0.70;;;15.40;99.90;;;;;;5032726;28;20170;-64
2023/05/31 09:51:08;;;;;;;1.23;0.52;;;15.60;99.90;;;;;;5032755;28;20538;-64
2023/05/31 09:53:43;;;;;;;3.17;0.70;;;15.60;99.90;;;;;;5032649;28;20192;-63
2023/05/31 09:56:22;;;;;;;2.25;0.70;;;15.70;99.90;;;;;;5032771;28;20169;-63
2023/05/31 09:58:49;;;;;;;1.13;0.80;;;15.70;99.90;;;;;;5032745;28;20166;-63
2023/05/31 10:01:16;;;;;;;1.25;0.80;;;15.80;99.90;;;;;;5032765;28;20174;-64
2023/05/31 10:03:43;;;;;;;2.55;0.65;;;15.80;99.90;;;;;;5032577;28;20181;-63
2023/05/31 10:06:09;;;;;;;1.48;0.60;;;15.70;99.90;;;;;;5032255;28;20759;-63
2023/05/31 10:08:35;;;;;;;0.73;0.52;;;15.70;99.90;;;;;;5032547;28;20695;-63
2023/05/31 10:11:01;;;;;;;1.20;0.80;;;15.80;99.90;;;;;;5032485;28;20177;-63
2023/05/31 10:13:33;;;;;;;2.10;0.68;;;15.90;99.90;;;;;;5032338;28;20170;-63
2023/05/31 10:16:07;;;;;;;2.08;0.73;;;15.80;99.90;;;;;;5032262;28;20182;-64
2023/05/31 10:18:36;;;;;;;2.40;0.70;;;16.10;99.90;;;;;;5031783;28;20156;-63
2023/05/31 10:21:23;;;;;;;3.15;0.80;;;16.10;99.90;;;;;;5032264;28;20182;-64
2023/05/31 10:24:00;;;;;;;2.80;0.90;;;16.20;99.90;;;;;;5032012;28;20182;-63
2023/05/31 10:26:38;;;;;;;1.77;0.80;;;16.20;99.90;;;;;;5032144;28;20233;-63
2023/05/31 10:29:11;;;;;;;6.38;1.13;;;16.30;99.90;;;;;;5032028;28;20173;-63
2023/05/31 10:31:43;;;;;;;1.20;0.68;;;16.40;99.90;;;;;;5031899;28;20222;-63
2023/05/31 10:34:35;;;;;;;1.08;0.65;;;16.20;99.90;;;;;;5031980;28;20170;-63
2023/05/31 10:37:03;;;;;;;1.55;0.70;;;16.40;99.90;;;;;;5029114;28;20273;-63
2023/05/31 10:39:40;;;;;;;1.73;0.82;;;16.70;99.90;;;;;;5031901;28;20180;-63
2023/05/31 10:42:24;;;;;;;1.40;0.60;;;16.70;99.90;;;;;;5031744;28;20558;-63
2023/05/31 10:45:05;;;;;;;3.25;0.73;;;16.80;99.90;;;;;;5032075;28;20173;-64
2023/05/31 10:47:38;;;;;;;1.15;0.80;;;16.60;99.90;;;;;;5031559;28;20218;-62
2023/05/31 10:50:05;;;;;;;3.00;0.80;;;16.90;99.90;;;;;;5031807;28;20197;-62
2023/05/31 10:52:31;;;;;;;2.30;0.82;;;17.20;99.90;;;;;;5031731;28;20189;-62
2023/05/31 10:55:19;;;;;;;2.15;1.05;;;17.30;99.90;;;;;;5031452;28;20772;-62
2023/05/31 10:57:50;;;;;;;1.88;1.02;;;17.30;99.90;;;;;;5031484;28;20182;-62
2023/05/31 11:00:22;;;;;;;4.10;0.88;;;17.60;99.90;;;;;;5031517;28;20177;-62
2023/05/31 11:02:51;;;;;;;1.65;0.95;;;17.60;99.90;;;;;;5031545;28;20184;-62
2023/05/31 11:05:18;;;;;;;4.80;1.00;;;17.50;99.90;;;;;;5031299;28;20167;-62
2023/05/31 11:07:44;;;;;;;1.83;0.95;;;17.50;99.90;;;;;;5013531;28;20608;-62
2023/05/31 11:10:10;;;;;;;3.78;1.10;;;18.20;99.90;;;;;;5031301;28;20174;-62
2023/05/31 11:12:37;;;;;;;1.33;0.90;;;18.70;99.90;;;;;;5031116;28;20178;-62
2023/05/31 11:15:05;;;;;;;3.13;1.10;;;18.20;99.90;;;;;;5031353;28;20170;-63
2023/05/31 11:17:52;;;;;;;2.35;1.10;;;18.50;99.90;;;;;;5031259;28;20220;-63
2023/05/31 11:20:19;;;;;;;1.85;1.00;;;18.70;99.90;;;;;;5013488;28;20184;-62
2023/05/31 11:22:44;;;;;;;1.15;0.90;;;18.80;99.90;;;;;;5031232;28;20201;-63
2023/05/31 11:25:20;;;;;;;2.83;1.00;;;18.70;99.90;;;;;;5030853;28;20638;-63
2023/05/31 11:27:48;;;;;;;2.38;1.05;;;18.70;99.90;;;;;;5030938;28;20185;-62
2023/05/31 11:30:16;;;;;;;7.18;1.40;;;18.60;99.90;;;;;;5030109;28;20186;-62
2023/05/31 11:32:42;;;;;;;1.98;1.20;;;18.50;99.90;;;;;;5029280;28;20226;-62
2023/05/31 11:35:16;;;;;;;2.30;1.20;;;18.70;99.90;;;;;;5013067;28;20208;-63
2023/05/31 11:37:42;;;;;;;4.88;1.20;;;18.50;99.90;;;;;;5030685;28;20181;-63
2023/05/31 11:40:13;;;;;;;1.30;0.98;;;18.20;99.90;;;;;;5030923;28;20166;-63
2023/05/31 11:42:40;;;;;;;2.75;1.40;;;18.30;99.90;;;;;;5013172;28;20177;-63
2023/05/31 11:45:08;;;;;;;3.45;1.50;;;18.20;99.90;;;;;;5030653;28;20223;-62
2023/05/31 11:47:51;;;;;;;2.45;1.52;;;18.40;99.90;;;;;;5030652;28;20741;-63
2023/05/31 11:50:17;;;;;;;4.40;1.70;;;18.30;99.90;;;;;;5030627;28;20178;-63
2023/05/31 11:52:43;;;;;;;4.93;1.50;;;18.30;99.90;;;;;;5030681;28;20224;-62
2023/05/31 11:55:09;;;;;;;5.82;1.63;;;18.30;99.90;;;;;;5030500;28;20170;-62
2023/05/31 11:57:51;;;;;;;5.80;1.90;;;18.20;99.90;;;;;;5030508;28;20174;-63
2023/05/31 12:00:21;;;;;;;5.43;1.80;;;18.50;99.90;;;;;;5030766;28;20178;-63
2023/05/31 12:02:54;;;;;;;3.05;1.55;;;18.60;99.90;;;;;;5030622;28;20209;-63
2023/05/31 12:05:22;;;;;;;6.13;1.33;;;18.70;99.90;;;;;;5030472;28;20328;-63
2023/05/31 12:07:51;;;;;;;2.90;1.42;;;18.60;99.90;;;;;;5030436;28;20265;-63
2023/05/31 12:10:17;;;;;;;3.80;1.65;;;18.50;99.90;;;;;;5030555;28;20254;-63
2023/05/31 12:12:46;;;;;;;6.30;1.50;;;18.70;99.90;;;;;;5030467;28;20215;-63
2023/05/31 12:15:12;;;;;;;2.60;1.50;;;18.90;99.90;;;;;;5013164;28;20173;-64
2023/05/31 12:17:38;;;;;;;3.40;1.85;;;18.90;99.90;;;;;;5030436;28;20166;-63
2023/05/31 12:20:13;;;;;;;4.80;1.35;;;18.90;99.90;;;;;;5030406;28;20507;-62
2023/05/31 12:22:39;;;;;;;1.88;1.40;;;18.60;99.90;;;;;;5030569;28;20212;-62
2023/05/31 12:25:06;;;;;;;2.25;1.45;;;19.20;99.90;;;;;;5012658;28;20714;-62
2023/05/31 12:27:32;;;;;;;2.65;1.55;;;19.60;99.90;;;;;;5030061;28;20275;-62
2023/05/31 12:30:00;;;;;;;2.38;1.58;;;20.20;99.90;;;;;;5030284;28;20174;-62
2023/05/31 12:32:29;;;;;;;8.35;1.52;;;20.20;99.90;;;;;;5030308;28;20221;-62
2023/05/31 12:35:08;;;;;;;1.63;1.20;;;20.70;99.90;;;;;;5030498;28;20162;-62
2023/05/31 12:37:38;;;;;;;3.05;1.30;;;21.00;99.90;;;;;;5030347;28;20182;-63
2023/05/31 12:40:13;;;;;;;2.08;1.20;;;20.30;99.90;;;;;;5031099;28;20174;-63
2023/05/31 12:42:39;;;;;;;2.53;1.40;;;20.30;99.90;;;;;;5034106;28;20275;-62
2023/05/31 12:45:06;;;;;;;3.97;1.30;;;20.50;99.90;;;;;;5033921;28;20180;-62
2023/05/31 12:47:33;;;;;;;3.38;1.50;;;20.50;99.90;;;;;;5033879;28;20292;-63
2023/05/31 12:50:07;;;;;;;1.92;1.33;;;21.20;99.90;;;;;;5034048;28;20174;-62
2023/05/31 12:52:40;;;;;;;3.97;1.70;;;21.70;99.90;;;;;;5033739;28;20180;-62